Terminal Aerodrome Forecast
Issued by NWS

Home | Current Version | Previous Version | Text Only | Print | Product List | Glossary Off
Versions: 1 2 3 4 5 6 7 8 9 10 11 12 13 14 15 16 17 18 19 20

000
FTUS43 KGRB 281900 AAA
TAFMTW
TAF AMD
KMTW 281923Z 2819/2918 18016G25KT P6SM OVC015
     FM282100 16015G22KT P6SM SCT015 OVC130
     FM290400 16010KT P6SM SCT015 OVC040 PROB30 2907/2911 4SM
      -FZDZSN BR OVC015
     FM291100 30006KT 4SM -SN BR OVC009
     FM291400 31011G16KT 5SM -FZDZSN BR OVC015
     FM291600 32017G25KT P6SM OVC020=

USA.gov is the U.S. government's official web portal to all federal, state and local government web resources and services.